KRME/RME METAR and TAF weather

Enter ICAO airport designator
Station Type Date Time Source
KRME METAR 2021/03/09 09:53 UTC NOAA

KRME 090953Z AUTO 00000KT 10SM OVC060 M03/M07 A3023 RMK AO2 SLP241 T10331072


Station Type Date Time Source
KRME Decoded METAR 2021/03/09 09:53 UTC NOAA

GRIFFISS AIRFIELD, NY, United States (KRME) 43-14N 075-24W
Mar 09, 2021 - 04:53 AM EST / 2021.03.09 0953 UTC
Wind: Calm:0
Visibility: 10 mile(s):0
Sky conditions: overcast
Temperature: 26.1 F (-3.3 C)
Dew Point: 19.0 F (-7.2 C)
Relative Humidity: 74%
Pressure (altimeter): 30.23 in. Hg (1023 hPa)
ob: KRME 090953Z AUTO 00000KT 10SM OVC060 M03/M07 A3023 RMK AO2 SLP241 T10331072
cycle: 10

Station Type Date Time Source
KRME TAF 2021/03/09 09:04 UTC NOAA

TAF
AMD KRME 090902Z 0909/1006 VRB04KT P6SM BKN050
FM091400 29008KT P6SM OVC030
FM091900 29008KT P6SM SCT040
FM100000 VRB03KT P6SM SCT250

Example: see airport list